createdAt,value
2022-10-10T00:01:14.616Z,94430.56
2022-10-10T00:03:42.022Z,94424.44
2022-10-10T00:06:09.170Z,94424.25
2022-10-10T00:08:36.178Z,94422.06
2022-10-10T00:11:04.251Z,94426.03
2022-10-10T00:13:31.330Z,94434.59
2022-10-10T00:15:58.437Z,94429.13
2022-10-10T00:18:25.849Z,94421.97
2022-10-10T00:20:53.310Z,94412.19
2022-10-10T00:23:20.917Z,94419.56
2022-10-10T00:25:48.309Z,94421.53
2022-10-10T00:28:15.601Z,94418.16
2022-10-10T00:30:42.509Z,94416.75
2022-10-10T00:33:09.569Z,94409.38
2022-10-10T00:35:36.451Z,94414.22
2022-10-10T00:38:03.686Z,94417.47
2022-10-10T00:40:30.649Z,94423.66
2022-10-10T00:42:57.473Z,94425.47
2022-10-10T00:45:36.192Z,94421.03
2022-10-10T00:48:06.398Z,94419.84
2022-10-10T00:50:36.778Z,94417.03
2022-10-10T00:53:06.269Z,94420.44
2022-10-10T00:55:33.471Z,94412.19
2022-10-10T00:58:00.189Z,94401.78
2022-10-10T01:00:26.891Z,94411.66
2022-10-10T01:02:53.947Z,94399.50
2022-10-10T01:05:21.097Z,94405.47
2022-10-10T01:07:47.917Z,94400.66
2022-10-10T01:10:16.369Z,94392.47
2022-10-10T01:12:55.959Z,94394.66
2022-10-10T01:15:31.537Z,94387.09
2022-10-10T01:18:29.597Z,94387.44
2022-10-10T01:21:09.396Z,94388.66
2022-10-10T01:24:09.989Z,94394.06
2022-10-10T01:26:58.654Z,94395.88
2022-10-10T01:29:33.754Z,94384.41
2022-10-10T01:32:15.123Z,94390.78
2022-10-10T01:34:49.170Z,94391.06
2022-10-10T01:37:34.032Z,94387.41
2022-10-10T01:40:14.747Z,94385.19
2022-10-10T01:42:48.138Z,94378.81
2022-10-10T01:45:14.953Z,94383.94
2022-10-10T01:47:41.950Z,94388.50
2022-10-10T01:50:13.490Z,94385.50
2022-10-10T01:52:50.268Z,94389.47
2022-10-10T01:55:33.177Z,94386.34
2022-10-10T01:58:29.769Z,94389.94
2022-10-10T02:00:59.761Z,94383.59
2022-10-10T02:03:40.168Z,94376.94
2022-10-10T02:06:13.234Z,94382.22
2022-10-10T02:08:49.532Z,94379.81
2022-10-10T02:11:16.344Z,94386.50
2022-10-10T02:13:46.669Z,94387.72
2022-10-10T02:16:19.624Z,94386.75
2022-10-10T02:18:47.585Z,94380.09
2022-10-10T02:21:15.210Z,94388.47
2022-10-10T02:23:43.530Z,94384.50
2022-10-10T02:26:13.707Z,94382.91
2022-10-10T02:28:42.476Z,94384.50
2022-10-10T02:31:16.812Z,94393.25
2022-10-10T02:33:54.258Z,94391.94
2022-10-10T02:36:22.070Z,94386.75
2022-10-10T02:38:49.057Z,94385.34
2022-10-10T02:41:18.361Z,94387.53
2022-10-10T02:43:45.690Z,94375.59
2022-10-10T02:46:14.170Z,94383.56
2022-10-10T02:48:41.652Z,94387.00
2022-10-10T02:51:09.428Z,94387.81
2022-10-10T02:53:37.557Z,94380.66
2022-10-10T02:56:05.116Z,94392.22
2022-10-10T02:58:31.976Z,94389.81
2022-10-10T03:00:58.969Z,94395.00
2022-10-10T03:03:25.950Z,94384.22
2022-10-10T03:05:53.031Z,94400.19
2022-10-10T03:08:20.229Z,94396.59
2022-10-10T03:10:58.048Z,94395.41
2022-10-10T03:13:25.133Z,94396.00
2022-10-10T03:15:51.929Z,94397.00
2022-10-10T03:18:18.748Z,94397.78
2022-10-10T03:20:46.703Z,94400.19
2022-10-10T03:23:14.090Z,94393.66
2022-10-10T03:25:42.349Z,94396.59
2022-10-10T03:28:10.103Z,94391.84
2022-10-10T03:30:38.029Z,94397.63
2022-10-10T03:33:05.050Z,94397.44
2022-10-10T03:35:31.909Z,94394.44
2022-10-10T03:37:58.910Z,94391.69
2022-10-10T03:40:26.588Z,94401.66
2022-10-10T03:42:53.684Z,94406.22
2022-10-10T03:45:20.681Z,94394.66
2022-10-10T03:47:47.409Z,94392.31
2022-10-10T03:50:14.404Z,94388.72
2022-10-10T03:52:41.217Z,94390.31
2022-10-10T03:55:08.145Z,94391.31
2022-10-10T03:57:35.190Z,94403.06
2022-10-10T04:00:01.931Z,94397.50
2022-10-10T04:02:28.730Z,94396.47
2022-10-10T04:04:55.970Z,94395.09
2022-10-10T04:07:22.669Z,94397.09
2022-10-10T04:09:49.729Z,94399.06
2022-10-10T04:12:16.449Z,94397.06
2022-10-10T04:14:43.209Z,94402.25
2022-10-10T04:17:10.289Z,94396.66
2022-10-10T04:19:36.846Z,94394.25
2022-10-10T04:22:05.978Z,94393.28
2022-10-10T04:24:35.809Z,94391.47
2022-10-10T04:27:02.377Z,94396.25
2022-10-10T04:29:29.025Z,94395.25
2022-10-10T04:31:55.675Z,94394.06
2022-10-10T04:34:22.255Z,94392.66
2022-10-10T04:36:48.815Z,94397.25
2022-10-10T04:39:15.427Z,94404.44
2022-10-10T04:41:42.033Z,94400.84
2022-10-10T04:44:08.828Z,94395.25
2022-10-10T04:46:35.476Z,94402.59
2022-10-10T04:49:02.050Z,94400.19
2022-10-10T04:51:28.633Z,94403.75
2022-10-10T04:53:55.243Z,94400.00
2022-10-10T04:56:21.888Z,94402.41
2022-10-10T04:58:48.518Z,94410.13
2022-10-10T05:01:15.278Z,94405.75
2022-10-10T05:03:41.901Z,94407.34
2022-10-10T05:06:08.667Z,94407.34
2022-10-10T05:08:35.316Z,94416.31
2022-10-10T05:11:02.218Z,94411.75
2022-10-10T05:13:28.889Z,94407.34
2022-10-10T05:15:55.626Z,94415.31
2022-10-10T05:18:22.230Z,94413.91
2022-10-10T05:20:49.153Z,94414.06
2022-10-10T05:23:16.558Z,94416.06
2022-10-10T05:25:50.236Z,94421.22
2022-10-10T05:28:17.434Z,94424.22
2022-10-10T05:30:44.407Z,94418.09
2022-10-10T05:33:11.066Z,94415.72
2022-10-10T05:35:37.738Z,94415.28
2022-10-10T05:38:05.313Z,94416.72
2022-10-10T05:40:31.989Z,94416.53
2022-10-10T05:42:58.647Z,94416.69
2022-10-10T05:45:25.396Z,94419.63
2022-10-10T05:47:52.127Z,94427.34
2022-10-10T05:50:39.194Z,94429.53
2022-10-10T05:53:06.958Z,94439.19
2022-10-10T05:55:34.157Z,94430.09
2022-10-10T05:58:01.059Z,94447.22
2022-10-10T06:00:27.847Z,94443.22
2022-10-10T06:02:55.057Z,94445.84
2022-10-10T06:05:22.097Z,94440.22
2022-10-10T06:08:09.251Z,94442.44
2022-10-10T06:10:36.958Z,94439.28
2022-10-10T06:13:03.931Z,94445.69
2022-10-10T06:15:30.911Z,94445.28
2022-10-10T06:17:57.676Z,94451.28
2022-10-10T06:20:24.325Z,94450.06
2022-10-10T06:22:51.338Z,94445.91
2022-10-10T06:25:38.302Z,94455.25
2022-10-10T06:28:05.973Z,94450.47
2022-10-10T06:30:35.282Z,94458.44
2022-10-10T06:33:02.234Z,94462.03
2022-10-10T06:35:29.865Z,94459.59
2022-10-10T06:37:56.503Z,94460.34
2022-10-10T06:40:23.195Z,94466.03
2022-10-10T06:42:50.159Z,94461.13
2022-10-10T06:45:17.103Z,94465.63
2022-10-10T06:47:43.756Z,94465.75
2022-10-10T06:50:11.413Z,94467.59
2022-10-10T06:52:38.191Z,94470.19
2022-10-10T06:55:05.225Z,94469.59
2022-10-10T06:57:32.026Z,94472.63
2022-10-10T06:59:58.784Z,94472.53
2022-10-10T07:02:25.588Z,94477.59
2022-10-10T07:04:52.306Z,94473.13
2022-10-10T07:07:19.107Z,94472.75
2022-10-10T07:09:45.850Z,94477.00
2022-10-10T07:12:12.669Z,94480.22
2022-10-10T07:14:39.394Z,94486.56
2022-10-10T07:17:06.074Z,94487.13
2022-10-10T07:19:33.662Z,94489.31
2022-10-10T07:22:00.621Z,94497.94
2022-10-10T07:24:27.667Z,94494.38
2022-10-10T07:27:03.408Z,94494.22
2022-10-10T07:29:30.866Z,94498.19
2022-10-10T07:31:57.891Z,94496.63
2022-10-10T07:34:24.903Z,94496.34
2022-10-10T07:36:51.667Z,94504.09
2022-10-10T07:39:22.151Z,94504.53
2022-10-10T07:41:50.103Z,94501.03
2022-10-10T07:44:17.043Z,94510.13
2022-10-10T07:46:44.195Z,94509.72
2022-10-10T07:49:11.554Z,94503.34
2022-10-10T07:51:39.274Z,94498.59
2022-10-10T07:54:06.578Z,94510.22
2022-10-10T07:56:33.990Z,94515.19
2022-10-10T07:59:01.106Z,94522.38
2022-10-10T08:01:28.052Z,94512.34
2022-10-10T08:03:56.518Z,94503.81
2022-10-10T08:06:23.318Z,94505.91
2022-10-10T08:08:51.968Z,94491.78
2022-10-10T08:11:20.911Z,94510.72
2022-10-10T08:13:47.618Z,94497.38
2022-10-10T08:16:14.615Z,94497.03
2022-10-10T08:18:41.461Z,94510.59
2022-10-10T08:21:11.320Z,94513.53
2022-10-10T08:23:38.107Z,94503.63
2022-10-10T08:26:10.085Z,94509.56
2022-10-10T08:28:37.452Z,94510.28
2022-10-10T08:31:14.052Z,94520.06
2022-10-10T08:33:41.900Z,94523.22
2022-10-10T08:36:15.493Z,94522.25
2022-10-10T08:38:42.662Z,94518.47
2022-10-10T08:41:48.356Z,94513.47
2022-10-10T08:44:24.700Z,94516.94
2022-10-10T08:46:58.575Z,94515.91
2022-10-10T08:49:46.898Z,94516.31
2022-10-10T08:52:25.509Z,94520.22
2022-10-10T08:54:58.146Z,94509.91
2022-10-10T08:57:31.195Z,94515.72
2022-10-10T09:00:06.706Z,94508.56
2022-10-10T09:02:55.411Z,94514.16
2022-10-10T09:05:41.769Z,94510.72
2022-10-10T09:08:24.464Z,94505.06
2022-10-10T09:11:16.133Z,94501.88
2022-10-10T09:13:59.311Z,94511.00
2022-10-10T09:16:47.405Z,94510.47
2022-10-10T09:19:35.926Z,94504.13
2022-10-10T09:22:06.986Z,94504.34
2022-10-10T09:24:35.866Z,94503.06
2022-10-10T09:27:06.563Z,94505.72
2022-10-10T09:29:39.430Z,94496.50
2022-10-10T09:32:23.925Z,94496.41
2022-10-10T09:35:21.380Z,94494.19
2022-10-10T09:37:51.227Z,94493.91
2022-10-10T09:40:37.170Z,94486.19
2022-10-10T09:43:17.478Z,94484.84
2022-10-10T09:46:02.525Z,94479.88
2022-10-10T09:48:33.024Z,94473.03
2022-10-10T09:51:01.490Z,94463.47
2022-10-10T09:53:28.736Z,94471.97
2022-10-10T09:55:55.804Z,94454.81
2022-10-10T09:58:35.952Z,94467.25
2022-10-10T10:01:24.380Z,94457.41
2022-10-10T10:04:29.228Z,94464.59
2022-10-10T10:07:31.291Z,94457.72
2022-10-10T10:10:12.141Z,94453.47
2022-10-10T10:12:42.975Z,94457.72
2022-10-10T10:15:22.632Z,94457.94
2022-10-10T10:18:17.144Z,94451.34
2022-10-10T10:20:49.802Z,94452.22
2022-10-10T10:23:38.263Z,94445.19
2022-10-10T10:26:16.941Z,94445.72
2022-10-10T10:28:45.105Z,94450.53
2022-10-10T10:31:31.229Z,94448.56
2022-10-10T10:34:21.446Z,94445.41
2022-10-10T10:37:15.895Z,94444.59
2022-10-10T10:39:45.679Z,94443.00
2022-10-10T10:42:24.404Z,94440.91
2022-10-10T10:45:13.037Z,94438.56
2022-10-10T10:48:18.333Z,94446.69
2022-10-10T10:50:53.523Z,94449.88
2022-10-10T10:53:32.317Z,94438.72
2022-10-10T10:56:17.885Z,94440.19
2022-10-10T10:59:31.879Z,94427.38
2022-10-10T11:02:07.806Z,94437.13
2022-10-10T11:05:18.901Z,94431.34
2022-10-10T11:08:29.017Z,94427.78
2022-10-10T11:11:20.615Z,94421.78
2022-10-10T11:13:51.145Z,94418.41
2022-10-10T11:16:46.961Z,94407.22
2022-10-10T11:19:14.626Z,94405.78
2022-10-10T11:21:46.863Z,94401.50
2022-10-10T11:24:22.675Z,94401.84
2022-10-10T11:26:54.486Z,94399.91
2022-10-10T11:29:24.378Z,94396.97
2022-10-10T11:34:55.298Z,94394.63
2022-10-10T11:37:26.204Z,94389.47
2022-10-10T11:39:56.071Z,94387.53
2022-10-10T11:42:46.354Z,94387.84
2022-10-10T11:45:18.426Z,94375.44
2022-10-10T11:47:56.862Z,94376.91
2022-10-10T11:50:29.253Z,94370.88
2022-10-10T11:53:05.834Z,94372.34
2022-10-10T11:55:38.788Z,94377.69
2022-10-10T11:58:05.505Z,94368.72
2022-10-10T12:00:46.305Z,94379.59
2022-10-10T12:03:13.646Z,94374.00
2022-10-10T12:05:43.255Z,94380.84
2022-10-10T12:08:19.563Z,94374.47
2022-10-10T12:10:58.194Z,94369.38
2022-10-10T12:13:37.245Z,94370.72
2022-10-10T12:16:28.215Z,94362.63
2022-10-10T12:19:02.737Z,94370.09
2022-10-10T12:21:30.549Z,94363.75
2022-10-10T12:24:04.421Z,94365.44
2022-10-10T12:26:53.058Z,94360.69
2022-10-10T12:29:56.523Z,94364.19
2022-10-10T12:32:23.187Z,94359.63
2022-10-10T12:34:49.926Z,94362.78
2022-10-10T12:37:34.865Z,94364.31
2022-10-10T12:40:08.048Z,94354.41
2022-10-10T12:42:57.888Z,94347.78
2022-10-10T12:45:30.650Z,94352.44
2022-10-10T12:48:07.152Z,94351.94
2022-10-10T12:50:44.052Z,94349.81
2022-10-10T12:53:13.726Z,94352.44
2022-10-10T12:56:01.073Z,94338.38
2022-10-10T12:58:30.295Z,94337.44
2022-10-10T13:00:59.637Z,94338.66
2022-10-10T13:03:34.505Z,94345.38
2022-10-10T13:06:20.435Z,94339.88
2022-10-10T13:08:47.644Z,94332.31
2022-10-10T13:11:15.501Z,94330.53
2022-10-10T13:13:52.894Z,94330.25
2022-10-10T13:16:22.604Z,94325.50
2022-10-10T13:18:52.291Z,94323.53
2022-10-10T13:21:23.054Z,94325.59
2022-10-10T13:26:40.470Z,94330.09
2022-10-10T13:29:30.284Z,94335.16
2022-10-10T13:32:19.253Z,94326.72
2022-10-10T13:34:53.794Z,94331.31
2022-10-10T13:37:21.091Z,94340.47
2022-10-10T13:39:49.879Z,94336.81
2022-10-10T13:42:37.697Z,94329.16
2022-10-10T13:45:37.734Z,94328.09
2022-10-10T13:48:04.397Z,94319.38
2022-10-10T13:50:34.716Z,94334.09
2022-10-10T13:53:29.285Z,94336.38
2022-10-10T13:56:18.316Z,94335.34
2022-10-10T13:58:52.584Z,94339.63
2022-10-10T14:01:28.364Z,94335.16
2022-10-10T14:04:02.302Z,94330.34
2022-10-10T14:06:29.635Z,94333.88
2022-10-10T14:09:04.530Z,94338.84
2022-10-10T14:11:32.495Z,94331.03
2022-10-10T14:14:14.167Z,94333.03
2022-10-10T14:16:40.903Z,94327.38
2022-10-10T14:19:27.896Z,94336.50
2022-10-10T14:21:54.699Z,94340.16
2022-10-10T14:24:21.514Z,94339.38
2022-10-10T14:26:48.276Z,94335.41
2022-10-10T14:29:16.904Z,94340.59
2022-10-10T14:31:44.775Z,94341.44
2022-10-10T14:34:12.854Z,94338.38
2022-10-10T14:36:46.613Z,94328.28
2022-10-10T14:39:22.207Z,94331.47
2022-10-10T14:41:48.984Z,94336.16
2022-10-10T14:44:15.670Z,94344.84
2022-10-10T14:46:42.584Z,94339.25
2022-10-10T14:49:19.476Z,94337.63
2022-10-10T14:51:49.397Z,94338.88
2022-10-10T14:54:16.183Z,94337.38
2022-10-10T14:57:07.150Z,94339.50
2022-10-10T14:59:49.798Z,94346.19
2022-10-10T15:02:20.114Z,94348.59
2022-10-10T15:04:46.876Z,94345.94
2022-10-10T15:07:15.019Z,94352.09
2022-10-10T15:10:11.141Z,94354.19
2022-10-10T15:12:34.878Z,94354.19
2022-10-10T15:15:01.771Z,94348.13
2022-10-10T15:17:30.520Z,94357.34
2022-10-10T15:19:57.292Z,94359.22
2022-10-10T15:22:24.004Z,94352.38
2022-10-10T15:24:50.715Z,94353.97
2022-10-10T15:27:17.468Z,94355.34
2022-10-10T15:29:44.148Z,94357.72
2022-10-10T15:32:10.957Z,94359.28
2022-10-10T15:34:38.012Z,94363.75
2022-10-10T15:37:04.795Z,94361.34
2022-10-10T15:39:31.619Z,94371.91
2022-10-10T15:42:01.335Z,94369.00
2022-10-10T15:44:33.833Z,94370.78
2022-10-10T15:47:00.654Z,94361.31
2022-10-10T15:49:27.469Z,94365.75
2022-10-10T15:51:54.245Z,94370.38
2022-10-10T15:54:20.945Z,94363.75
2022-10-10T15:56:47.880Z,94360.03
2022-10-10T15:59:14.738Z,94363.69
2022-10-10T16:01:41.473Z,94358.81
2022-10-10T16:04:08.215Z,94366.50
2022-10-10T16:06:34.896Z,94367.81
2022-10-10T16:09:26.879Z,94360.69
2022-10-10T16:11:49.073Z,94359.81
2022-10-10T16:14:15.867Z,94359.81
2022-10-10T16:16:42.553Z,94368.06
2022-10-10T16:19:09.300Z,94372.75
2022-10-10T16:21:36.033Z,94374.41
2022-10-10T16:24:09.157Z,94376.78
2022-10-10T16:26:37.652Z,94380.00
2022-10-10T16:29:06.295Z,94384.78
2022-10-10T16:31:35.303Z,94384.72
2022-10-10T16:34:02.114Z,94390.75
2022-10-10T16:36:31.493Z,94389.66
2022-10-10T16:38:58.907Z,94394.97
2022-10-10T16:41:47.122Z,94392.53
2022-10-10T16:44:14.793Z,94393.25
2022-10-10T16:46:41.525Z,94403.06
2022-10-10T16:49:08.372Z,94412.25
2022-10-10T16:51:35.073Z,94409.97
2022-10-10T16:54:02.471Z,94404.88
2022-10-10T16:56:30.235Z,94411.44
2022-10-10T16:58:59.455Z,94417.03
2022-10-10T17:01:26.853Z,94412.34
2022-10-10T17:03:53.953Z,94420.97
2022-10-10T17:06:23.152Z,94419.22
2022-10-10T17:08:51.676Z,94422.25
2022-10-10T17:11:20.720Z,94418.56
2022-10-10T17:13:47.924Z,94424.69
2022-10-10T17:19:06.975Z,94435.34
2022-10-10T17:21:33.725Z,94432.72
2022-10-10T17:24:00.423Z,94431.53
2022-10-10T17:26:28.103Z,94433.59
2022-10-10T17:28:56.022Z,94430.28
2022-10-10T17:31:23.154Z,94436.69
2022-10-10T17:33:53.826Z,94438.03
2022-10-10T17:36:23.679Z,94439.69
2022-10-10T17:38:51.123Z,94435.38
2022-10-10T17:41:18.931Z,94428.22
2022-10-10T17:43:46.392Z,94439.81
2022-10-10T17:46:34.407Z,94434.91
2022-10-10T17:49:06.535Z,94435.84
2022-10-10T17:51:34.348Z,94421.00
2022-10-10T17:54:01.842Z,94435.91
2022-10-10T17:56:28.926Z,94438.41
2022-10-10T17:58:55.953Z,94428.88
2022-10-10T18:01:23.125Z,94439.50
2022-10-10T18:03:49.964Z,94437.22
2022-10-10T18:06:18.414Z,94445.06
2022-10-10T18:08:47.254Z,94442.03
2022-10-10T18:11:19.753Z,94442.63
2022-10-10T18:13:46.966Z,94433.78
2022-10-10T18:16:16.126Z,94456.22
2022-10-10T18:18:49.612Z,94461.84
2022-10-10T18:21:18.212Z,94463.22
2022-10-10T18:23:44.914Z,94452.59
2022-10-10T18:26:15.312Z,94459.72
2022-10-10T18:28:44.879Z,94460.03
2022-10-10T18:31:39.170Z,94465.75
2022-10-10T18:34:07.495Z,94463.72
2022-10-10T18:36:36.467Z,94464.50
2022-10-10T18:39:06.971Z,94463.72
2022-10-10T18:41:34.718Z,94464.88
2022-10-10T18:44:07.175Z,94461.47
2022-10-10T18:46:35.012Z,94465.19
2022-10-10T18:49:02.690Z,94463.50
2022-10-10T18:51:29.831Z,94458.84
2022-10-10T18:54:01.077Z,94462.59
2022-10-10T18:56:28.649Z,94462.41
2022-10-10T18:58:57.952Z,94462.28
2022-10-10T19:01:28.321Z,94467.28
2022-10-10T19:03:56.144Z,94463.97
2022-10-10T19:06:24.719Z,94459.91
2022-10-10T19:08:54.144Z,94468.97
2022-10-10T19:11:23.505Z,94464.31
2022-10-10T19:13:50.785Z,94460.69
2022-10-10T19:16:18.163Z,94468.53
2022-10-10T19:18:45.305Z,94463.97
2022-10-10T19:21:12.372Z,94463.41
2022-10-10T19:23:39.426Z,94462.97
2022-10-10T19:26:09.105Z,94467.16
2022-10-10T19:28:37.033Z,94469.56
2022-10-10T19:31:06.823Z,94466.47
2022-10-10T19:33:33.970Z,94470.44
2022-10-10T19:36:02.571Z,94476.22
2022-10-10T19:38:30.267Z,94472.25
2022-10-10T19:40:56.915Z,94472.91
2022-10-10T19:43:23.725Z,94472.78
2022-10-10T19:45:53.617Z,94467.69
2022-10-10T19:48:21.176Z,94476.66
2022-10-10T19:50:48.718Z,94479.81
2022-10-10T19:53:17.814Z,94474.84
2022-10-10T19:55:47.465Z,94473.03
2022-10-10T19:58:14.266Z,94475.19
2022-10-10T20:00:41.019Z,94479.25
2022-10-10T20:03:07.842Z,94484.38
2022-10-10T20:05:34.622Z,94476.56
2022-10-10T20:08:01.214Z,94488.88
2022-10-10T20:10:27.928Z,94489.09
2022-10-10T20:12:55.287Z,94490.56
2022-10-10T20:15:21.915Z,94481.28
2022-10-10T20:17:48.585Z,94491.72
2022-10-10T20:20:15.303Z,94492.16
2022-10-10T20:22:44.560Z,94491.00
2022-10-10T20:25:11.258Z,94491.28
2022-10-10T20:27:38.003Z,94493.38
2022-10-10T20:30:05.848Z,94491.56
2022-10-10T20:32:32.518Z,94497.22
2022-10-10T20:34:59.294Z,94493.16
2022-10-10T20:37:26.006Z,94499.16
2022-10-10T20:39:52.764Z,94495.53
2022-10-10T20:42:19.430Z,94494.84
2022-10-10T20:44:46.097Z,94501.88
2022-10-10T20:47:12.716Z,94499.22
2022-10-10T20:49:39.428Z,94499.59
2022-10-10T20:52:05.990Z,94495.38
2022-10-10T20:54:32.656Z,94502.63
2022-10-10T20:56:59.309Z,94501.78
2022-10-10T20:59:26.018Z,94508.47
2022-10-10T21:01:52.620Z,94506.34
2022-10-10T21:04:19.415Z,94508.72
2022-10-10T21:06:46.013Z,94509.59
2022-10-10T21:09:14.552Z,94505.97
2022-10-10T21:11:41.769Z,94504.94
2022-10-10T21:14:08.499Z,94506.53
2022-10-10T21:16:37.969Z,94510.50
2022-10-10T21:19:06.211Z,94510.13
2022-10-10T21:21:35.077Z,94510.34
2022-10-10T21:24:03.753Z,94514.13
2022-10-10T21:26:31.134Z,94519.75
2022-10-10T21:28:58.333Z,94514.84
2022-10-10T21:31:29.790Z,94511.81
2022-10-10T21:33:56.883Z,94512.75
2022-10-10T21:36:25.298Z,94512.09
2022-10-10T21:38:53.957Z,94510.38
2022-10-10T21:41:20.983Z,94514.72
2022-10-10T21:43:53.071Z,94512.69
2022-10-10T21:46:25.109Z,94518.56
2022-10-10T21:48:52.569Z,94518.75
2022-10-10T21:51:20.359Z,94514.47
2022-10-10T21:53:47.584Z,94520.97
2022-10-10T21:56:14.537Z,94525.41
2022-10-10T21:58:42.841Z,94521.03
2022-10-10T22:01:10.303Z,94519.16
2022-10-10T22:03:37.346Z,94517.19
2022-10-10T22:06:06.742Z,94522.31
2022-10-10T22:08:34.001Z,94522.91
2022-10-10T22:11:01.692Z,94518.84
2022-10-10T22:13:28.759Z,94513.41
2022-10-10T22:15:55.829Z,94512.25
2022-10-10T22:18:22.573Z,94511.91
2022-10-10T22:20:49.425Z,94510.88
2022-10-10T22:23:17.013Z,94518.84
2022-10-10T22:25:47.984Z,94504.00
2022-10-10T22:28:15.748Z,94508.56
2022-10-10T22:30:42.568Z,94505.31
2022-10-10T22:33:09.560Z,94507.41
2022-10-10T22:35:36.554Z,94509.16
2022-10-10T22:38:03.907Z,94510.16
2022-10-10T22:40:30.692Z,94517.31
2022-10-10T22:42:57.520Z,94508.91
2022-10-10T22:45:24.335Z,94520.91
2022-10-10T22:47:51.066Z,94518.34
2022-10-10T22:50:18.498Z,94527.91
2022-10-10T22:52:45.193Z,94517.25
2022-10-10T22:55:15.843Z,94515.66
2022-10-10T22:57:44.968Z,94521.22
2022-10-10T23:00:12.412Z,94526.66
2022-10-10T23:02:39.028Z,94518.16
2022-10-10T23:05:06.447Z,94522.94
2022-10-10T23:07:33.236Z,94514.69
2022-10-10T23:09:59.843Z,94515.34
2022-10-10T23:12:26.627Z,94515.91
2022-10-10T23:14:53.324Z,94517.94
2022-10-10T23:17:20.018Z,94519.19
2022-10-10T23:19:46.682Z,94518.50
2022-10-10T23:22:14.016Z,94513.31
2022-10-10T23:24:41.344Z,94513.19
2022-10-10T23:27:08.137Z,94518.28
2022-10-10T23:29:34.908Z,94524.94
2022-10-10T23:32:01.612Z,94520.00
2022-10-10T23:34:28.293Z,94524.69
2022-10-10T23:36:54.957Z,94531.44
2022-10-10T23:39:21.645Z,94531.59
2022-10-10T23:41:48.297Z,94535.34
2022-10-10T23:44:14.986Z,94537.59
2022-10-10T23:46:41.676Z,94536.50
2022-10-10T23:49:09.757Z,94540.13
2022-10-10T23:51:36.548Z,94541.16
2022-10-10T23:54:03.289Z,94537.53
2022-10-10T23:56:30.065Z,94542.09
2022-10-10T23:58:56.765Z,94535.50
